sensor_id;sensor_type;location;lat;lon;timestamp;P1;durP1;ratioP1;P2;durP2;ratioP2
44446;SDS011;30152;52.066;5.358;2023-03-23T07:50:00;15.20;;;3.05;;
44446;SDS011;30152;52.066;5.358;2023-03-23T07:52:26;9.43;;;2.22;;
44446;SDS011;30152;52.066;5.358;2023-03-23T07:54:52;12.55;;;2.88;;
44446;SDS011;30152;52.066;5.358;2023-03-23T07:57:18;10.25;;;2.47;;
44446;SDS011;30152;52.066;5.358;2023-03-23T07:59:44;10.75;;;2.47;;
44446;SDS011;30152;52.066;5.358;2023-03-23T08:02:11;10.10;;;2.75;;
44446;SDS011;30152;52.066;5.358;2023-03-23T08:04:36;11.15;;;2.78;;
44446;SDS011;30152;52.066;5.358;2023-03-23T08:07:03;11.63;;;2.80;;
44446;SDS011;30152;52.066;5.358;2023-03-23T08:09:30;12.75;;;3.10;;
44446;SDS011;30152;52.066;5.358;2023-03-23T08:11:56;10.63;;;2.92;;
44446;SDS011;30152;52.066;5.358;2023-03-23T08:14:22;16.25;;;3.58;;
44446;SDS011;30152;52.066;5.358;2023-03-23T08:16:52;13.23;;;2.78;;
44446;SDS011;30152;52.066;5.358;2023-03-23T08:19:20;12.63;;;2.75;;
44446;SDS011;30152;52.066;5.358;2023-03-23T08:21:46;10.10;;;2.42;;
44446;SDS011;30152;52.066;5.358;2023-03-23T08:24:12;12.40;;;2.70;;
44446;SDS011;30152;52.066;5.358;2023-03-23T08:26:39;11.18;;;2.53;;
44446;SDS011;30152;52.066;5.358;2023-03-23T08:29:05;15.88;;;3.05;;
44446;SDS011;30152;52.066;5.358;2023-03-23T08:31:31;12.52;;;2.70;;
44446;SDS011;30152;52.066;5.358;2023-03-23T08:33:59;10.63;;;2.80;;
44446;SDS011;30152;52.066;5.358;2023-03-23T08:36:25;10.48;;;3.38;;
44446;SDS011;30152;52.066;5.358;2023-03-23T08:38:52;9.48;;;2.35;;
44446;SDS011;30152;52.066;5.358;2023-03-23T08:41:18;14.80;;;2.38;;
44446;SDS011;30152;52.066;5.358;2023-03-23T08:43:44;14.18;;;2.60;;
44446;SDS011;30152;52.066;5.358;2023-03-23T08:46:11;16.60;;;2.42;;
44446;SDS011;30152;52.066;5.358;2023-03-23T08:48:37;11.98;;;3.42;;
44446;SDS011;30152;52.066;5.358;2023-03-23T08:51:04;10.00;;;2.05;;
44446;SDS011;30152;52.066;5.358;2023-03-23T08:53:30;16.33;;;3.13;;
44446;SDS011;30152;52.066;5.358;2023-03-23T08:56:01;17.73;;;2.67;;
44446;SDS011;30152;52.066;5.358;2023-03-23T08:58:28;9.27;;;1.95;;
44446;SDS011;30152;52.066;5.358;2023-03-23T09:00:54;8.23;;;2.30;;
44446;SDS011;30152;52.066;5.358;2023-03-23T09:03:20;13.45;;;2.40;;
44446;SDS011;30152;52.066;5.358;2023-03-23T09:05:47;9.70;;;2.35;;
44446;SDS011;30152;52.066;5.358;2023-03-23T09:08:13;11.25;;;2.95;;
44446;SDS011;30152;52.066;5.358;2023-03-23T09:10:39;13.52;;;3.33;;
44446;SDS011;30152;52.066;5.358;2023-03-23T09:13:05;11.90;;;2.17;;
44446;SDS011;30152;52.066;5.358;2023-03-23T09:15:31;9.13;;;2.60;;
44446;SDS011;30152;52.066;5.358;2023-03-23T09:17:57;11.98;;;2.13;;
44446;SDS011;30152;52.066;5.358;2023-03-23T09:20:24;12.40;;;2.08;;
44446;SDS011;30152;52.066;5.358;2023-03-23T09:22:51;11.18;;;2.42;;
44446;SDS011;30152;52.066;5.358;2023-03-23T09:25:18;14.65;;;1.90;;
44446;SDS011;30152;52.066;5.358;2023-03-23T09:27:46;11.27;;;2.70;;
44446;SDS011;30152;52.066;5.358;2023-03-23T09:30:17;12.27;;;1.90;;
44446;SDS011;30152;52.066;5.358;2023-03-23T09:32:44;12.73;;;2.33;;
44446;SDS011;30152;52.066;5.358;2023-03-23T09:35:10;14.82;;;2.85;;
44446;SDS011;30152;52.066;5.358;2023-03-23T09:37:37;10.93;;;1.83;;
44446;SDS011;30152;52.066;5.358;2023-03-23T09:40:05;13.05;;;2.60;;
44446;SDS011;30152;52.066;5.358;2023-03-23T09:42:35;13.40;;;2.20;;
44446;SDS011;30152;52.066;5.358;2023-03-23T09:45:09;13.23;;;2.03;;
44446;SDS011;30152;52.066;5.358;2023-03-23T09:48:00;15.10;;;2.72;;
44446;SDS011;30152;52.066;5.358;2023-03-23T09:50:29;13.38;;;2.45;;
44446;SDS011;30152;52.066;5.358;2023-03-23T09:52:58;9.30;;;2.00;;
44446;SDS011;30152;52.066;5.358;2023-03-23T09:55:26;12.85;;;2.30;;
44446;SDS011;30152;52.066;5.358;2023-03-23T09:58:05;13.82;;;2.67;;
44446;SDS011;30152;52.066;5.358;2023-03-23T10:01:04;16.05;;;2.42;;
44446;SDS011;30152;52.066;5.358;2023-03-23T10:03:30;10.70;;;2.00;;
44446;SDS011;30152;52.066;5.358;2023-03-23T10:05:58;13.70;;;2.13;;
44446;SDS011;30152;52.066;5.358;2023-03-23T10:08:29;9.63;;;1.98;;
44446;SDS011;30152;52.066;5.358;2023-03-23T10:13:42;9.07;;;2.30;;
44446;SDS011;30152;52.066;5.358;2023-03-23T10:16:10;15.80;;;3.13;;
44446;SDS011;30152;52.066;5.358;2023-03-23T10:18:40;12.13;;;1.92;;
44446;SDS011;30152;52.066;5.358;2023-03-23T10:21:10;13.05;;;2.53;;
44446;SDS011;30152;52.066;5.358;2023-03-23T10:26:12;9.95;;;2.05;;
44446;SDS011;30152;52.066;5.358;2023-03-23T10:28:43;14.25;;;2.25;;
44446;SDS011;30152;52.066;5.358;2023-03-23T10:31:11;17.50;;;3.08;;
44446;SDS011;30152;52.066;5.358;2023-03-23T10:38:37;18.77;;;2.92;;
44446;SDS011;30152;52.066;5.358;2023-03-23T10:41:04;14.35;;;2.25;;
44446;SDS011;30152;52.066;5.358;2023-03-23T10:43:32;13.25;;;2.30;;
44446;SDS011;30152;52.066;5.358;2023-03-23T10:46:02;11.82;;;2.20;;
44446;SDS011;30152;52.066;5.358;2023-03-23T10:48:33;15.07;;;2.63;;
44446;SDS011;30152;52.066;5.358;2023-03-23T10:51:02;14.27;;;2.75;;
44446;SDS011;30152;52.066;5.358;2023-03-23T10:53:34;18.63;;;2.95;;
44446;SDS011;30152;52.066;5.358;2023-03-23T10:56:00;13.43;;;2.47;;
44446;SDS011;30152;52.066;5.358;2023-03-23T10:58:28;12.07;;;2.28;;
44446;SDS011;30152;52.066;5.358;2023-03-23T11:00:54;15.88;;;2.50;;
44446;SDS011;30152;52.066;5.358;2023-03-23T11:03:25;18.25;;;3.10;;
44446;SDS011;30152;52.066;5.358;2023-03-23T11:05:56;12.57;;;2.58;;
44446;SDS011;30152;52.066;5.358;2023-03-23T11:08:23;9.23;;;1.85;;
44446;SDS011;30152;52.066;5.358;2023-03-23T11:10:54;12.00;;;1.92;;
44446;SDS011;30152;52.066;5.358;2023-03-23T11:13:22;10.07;;;2.00;;
44446;SDS011;30152;52.066;5.358;2023-03-23T11:15:49;10.93;;;1.88;;
44446;SDS011;30152;52.066;5.358;2023-03-23T11:18:23;11.95;;;2.33;;
44446;SDS011;30152;52.066;5.358;2023-03-23T11:20:54;16.38;;;3.55;;
44446;SDS011;30152;52.066;5.358;2023-03-23T11:23:28;17.90;;;2.42;;
44446;SDS011;30152;52.066;5.358;2023-03-23T11:28:21;12.20;;;2.03;;
44446;SDS011;30152;52.066;5.358;2023-03-23T11:30:52;11.40;;;2.20;;
44446;SDS011;30152;52.066;5.358;2023-03-23T11:33:19;11.27;;;2.47;;
44446;SDS011;30152;52.066;5.358;2023-03-23T11:35:45;17.60;;;2.95;;
44446;SDS011;30152;52.066;5.358;2023-03-23T11:38:15;10.77;;;1.73;;
44446;SDS011;30152;52.066;5.358;2023-03-23T11:40:44;19.33;;;2.95;;
44446;SDS011;30152;52.066;5.358;2023-03-23T11:43:13;16.63;;;2.13;;
44446;SDS011;30152;52.066;5.358;2023-03-23T11:45:41;16.95;;;2.58;;
44446;SDS011;30152;52.066;5.358;2023-03-23T11:53:24;15.48;;;2.13;;
44446;SDS011;30152;52.066;5.358;2023-03-23T11:55:57;11.30;;;1.85;;
44446;SDS011;30152;52.066;5.358;2023-03-23T11:58:24;20.90;;;2.75;;
44446;SDS011;30152;52.066;5.358;2023-03-23T12:01:11;21.73;;;2.28;;
44446;SDS011;30152;52.066;5.358;2023-03-23T12:03:51;14.75;;;2.60;;
44446;SDS011;30152;52.066;5.358;2023-03-23T12:06:22;17.80;;;3.05;;
44446;SDS011;30152;52.066;5.358;2023-03-23T12:09:01;20.10;;;3.05;;
44446;SDS011;30152;52.066;5.358;2023-03-23T12:14:47;15.45;;;2.97;;
44446;SDS011;30152;52.066;5.358;2023-03-23T12:17:29;21.05;;;2.53;;
44446;SDS011;30152;52.066;5.358;2023-03-23T12:28:32;14.27;;;2.38;;
44446;SDS011;30152;52.066;5.358;2023-03-23T12:31:18;12.77;;;2.38;;
44446;SDS011;30152;52.066;5.358;2023-03-23T12:42:16;9.88;;;1.92;;
44446;SDS011;30152;52.066;5.358;2023-03-23T12:45:11;12.80;;;3.13;;
44446;SDS011;30152;52.066;5.358;2023-03-23T12:47:48;7.68;;;1.60;;
44446;SDS011;30152;52.066;5.358;2023-03-23T12:50:32;10.93;;;2.05;;
44446;SDS011;30152;52.066;5.358;2023-03-23T12:53:23;11.07;;;1.73;;
44446;SDS011;30152;52.066;5.358;2023-03-23T12:58:44;12.95;;;1.80;;
44446;SDS011;30152;52.066;5.358;2023-03-23T13:01:17;11.02;;;1.63;;
44446;SDS011;30152;52.066;5.358;2023-03-23T13:06:15;6.65;;;1.60;;
44446;SDS011;30152;52.066;5.358;2023-03-23T13:08:47;12.40;;;1.95;;
44446;SDS011;30152;52.066;5.358;2023-03-23T13:11:15;12.02;;;2.40;;
44446;SDS011;30152;52.066;5.358;2023-03-23T13:13:47;8.23;;;1.55;;
44446;SDS011;30152;52.066;5.358;2023-03-23T13:21:32;13.40;;;2.05;;
44446;SDS011;30152;52.066;5.358;2023-03-23T13:24:04;10.38;;;1.75;;
44446;SDS011;30152;52.066;5.358;2023-03-23T13:26:31;14.20;;;1.95;;
44446;SDS011;30152;52.066;5.358;2023-03-23T13:28:58;9.27;;;1.88;;
44446;SDS011;30152;52.066;5.358;2023-03-23T13:31:36;11.18;;;1.75;;
44446;SDS011;30152;52.066;5.358;2023-03-23T13:34:06;11.85;;;1.70;;
44446;SDS011;30152;52.066;5.358;2023-03-23T13:36:37;9.85;;;1.90;;
44446;SDS011;30152;52.066;5.358;2023-03-23T13:39:18;7.32;;;2.03;;
44446;SDS011;30152;52.066;5.358;2023-03-23T13:41:48;10.10;;;2.13;;
44446;SDS011;30152;52.066;5.358;2023-03-23T13:44:16;6.93;;;1.70;;
44446;SDS011;30152;52.066;5.358;2023-03-23T13:46:52;10.23;;;1.60;;
44446;SDS011;30152;52.066;5.358;2023-03-23T13:49:20;11.13;;;1.95;;
44446;SDS011;30152;52.066;5.358;2023-03-23T13:52:01;12.00;;;2.15;;
44446;SDS011;30152;52.066;5.358;2023-03-23T13:54:38;12.07;;;2.08;;
44446;SDS011;30152;52.066;5.358;2023-03-23T13:59:48;11.75;;;1.98;;
44446;SDS011;30152;52.066;5.358;2023-03-23T14:02:28;10.05;;;1.40;;
44446;SDS011;30152;52.066;5.358;2023-03-23T14:04:55;7.68;;;1.33;;
44446;SDS011;30152;52.066;5.358;2023-03-23T14:07:21;17.67;;;2.42;;
44446;SDS011;30152;52.066;5.358;2023-03-23T14:09:49;7.20;;;1.50;;
44446;SDS011;30152;52.066;5.358;2023-03-23T14:12:19;8.68;;;1.58;;
44446;SDS011;30152;52.066;5.358;2023-03-23T14:14:49;9.15;;;1.67;;
44446;SDS011;30152;52.066;5.358;2023-03-23T14:17:21;9.98;;;2.35;;
44446;SDS011;30152;52.066;5.358;2023-03-23T14:19:50;9.30;;;2.10;;
44446;SDS011;30152;52.066;5.358;2023-03-23T14:22:39;9.93;;;1.60;;
44446;SDS011;30152;52.066;5.358;2023-03-23T14:25:16;8.05;;;1.77;;
44446;SDS011;30152;52.066;5.358;2023-03-23T14:27:44;9.93;;;2.00;;
44446;SDS011;30152;52.066;5.358;2023-03-23T14:30:15;10.10;;;1.83;;
44446;SDS011;30152;52.066;5.358;2023-03-23T14:32:42;11.88;;;2.17;;
44446;SDS011;30152;52.066;5.358;2023-03-23T14:35:30;7.80;;;1.60;;
44446;SDS011;30152;52.066;5.358;2023-03-23T14:37:59;9.10;;;1.85;;
44446;SDS011;30152;52.066;5.358;2023-03-23T14:40:26;11.00;;;2.45;;
44446;SDS011;30152;52.066;5.358;2023-03-23T14:42:53;9.82;;;1.95;;
44446;SDS011;30152;52.066;5.358;2023-03-23T14:45:21;13.52;;;2.33;;
44446;SDS011;30152;52.066;5.358;2023-03-23T14:47:49;7.88;;;1.80;;
44446;SDS011;30152;52.066;5.358;2023-03-23T14:50:58;10.80;;;2.05;;
44446;SDS011;30152;52.066;5.358;2023-03-23T14:55:55;14.93;;;2.10;;
44446;SDS011;30152;52.066;5.358;2023-03-23T14:58:29;11.30;;;1.73;;
44446;SDS011;30152;52.066;5.358;2023-03-23T15:01:06;9.60;;;2.33;;
44446;SDS011;30152;52.066;5.358;2023-03-23T15:03:36;10.88;;;2.35;;
44446;SDS011;30152;52.066;5.358;2023-03-23T15:06:06;14.77;;;2.10;;
44446;SDS011;30152;52.066;5.358;2023-03-23T15:08:37;11.00;;;1.77;;
44446;SDS011;30152;52.066;5.358;2023-03-23T15:13:30;11.57;;;1.55;;
44446;SDS011;30152;52.066;5.358;2023-03-23T15:16:04;13.38;;;2.03;;
44446;SDS011;30152;52.066;5.358;2023-03-23T15:18:33;16.30;;;2.65;;
44446;SDS011;30152;52.066;5.358;2023-03-23T15:21:08;10.88;;;2.08;;
44446;SDS011;30152;52.066;5.358;2023-03-23T15:23:45;10.50;;;1.73;;
44446;SDS011;30152;52.066;5.358;2023-03-23T15:26:28;10.13;;;1.98;;
44446;SDS011;30152;52.066;5.358;2023-03-23T15:29:00;10.52;;;1.67;;
44446;SDS011;30152;52.066;5.358;2023-03-23T15:31:45;12.40;;;1.85;;
44446;SDS011;30152;52.066;5.358;2023-03-23T15:34:20;11.55;;;1.67;;
44446;SDS011;30152;52.066;5.358;2023-03-23T15:36:54;12.65;;;2.08;;
44446;SDS011;30152;52.066;5.358;2023-03-23T15:39:22;10.32;;;2.13;;
44446;SDS011;30152;52.066;5.358;2023-03-23T15:41:50;12.65;;;2.35;;
44446;SDS011;30152;52.066;5.358;2023-03-23T15:44:20;15.18;;;1.83;;
44446;SDS011;30152;52.066;5.358;2023-03-23T15:47:15;8.25;;;1.85;;
44446;SDS011;30152;52.066;5.358;2023-03-23T15:49:43;10.85;;;1.80;;
44446;SDS011;30152;52.066;5.358;2023-03-23T15:52:22;14.85;;;2.53;;
44446;SDS011;30152;52.066;5.358;2023-03-23T15:54:48;12.45;;;2.50;;
44446;SDS011;30152;52.066;5.358;2023-03-23T15:57:14;14.45;;;2.10;;
44446;SDS011;30152;52.066;5.358;2023-03-23T15:59:40;13.57;;;2.00;;
44446;SDS011;30152;52.066;5.358;2023-03-23T16:02:06;13.02;;;2.65;;
44446;SDS011;30152;52.066;5.358;2023-03-23T16:07:05;9.70;;;1.55;;
44446;SDS011;30152;52.066;5.358;2023-03-23T16:09:32;15.50;;;2.55;;
44446;SDS011;30152;52.066;5.358;2023-03-23T16:11:58;14.55;;;2.50;;
44446;SDS011;30152;52.066;5.358;2023-03-23T16:14:23;15.63;;;2.33;;
44446;SDS011;30152;52.066;5.358;2023-03-23T16:16:49;14.25;;;2.70;;
44446;SDS011;30152;52.066;5.358;2023-03-23T16:19:17;9.68;;;2.05;;
44446;SDS011;30152;52.066;5.358;2023-03-23T16:21:44;13.65;;;3.60;;
44446;SDS011;30152;52.066;5.358;2023-03-23T16:24:10;12.13;;;2.40;;
44446;SDS011;30152;52.066;5.358;2023-03-23T16:26:36;11.40;;;2.88;;
44446;SDS011;30152;52.066;5.358;2023-03-23T16:29:08;10.45;;;1.95;;
44446;SDS011;30152;52.066;5.358;2023-03-23T16:31:37;8.93;;;2.13;;
44446;SDS011;30152;52.066;5.358;2023-03-23T16:34:03;17.60;;;2.92;;
44446;SDS011;30152;52.066;5.358;2023-03-23T16:36:29;13.60;;;2.35;;
44446;SDS011;30152;52.066;5.358;2023-03-23T16:38:54;15.38;;;2.67;;
44446;SDS011;30152;52.066;5.358;2023-03-23T16:41:20;12.38;;;2.20;;
44446;SDS011;30152;52.066;5.358;2023-03-23T16:43:45;16.80;;;2.30;;
44446;SDS011;30152;52.066;5.358;2023-03-23T16:46:12;11.18;;;2.22;;
44446;SDS011;30152;52.066;5.358;2023-03-23T16:48:38;14.75;;;2.78;;
44446;SDS011;30152;52.066;5.358;2023-03-23T16:51:03;11.32;;;2.25;;
44446;SDS011;30152;52.066;5.358;2023-03-23T16:53:29;16.58;;;2.60;;
44446;SDS011;30152;52.066;5.358;2023-03-23T16:55:54;14.60;;;2.35;;
44446;SDS011;30152;52.066;5.358;2023-03-23T16:58:21;16.25;;;2.45;;
44446;SDS011;30152;52.066;5.358;2023-03-23T17:00:48;10.35;;;1.98;;
44446;SDS011;30152;52.066;5.358;2023-03-23T17:03:16;11.13;;;2.20;;
44446;SDS011;30152;52.066;5.358;2023-03-23T17:05:42;9.90;;;2.20;;
44446;SDS011;30152;52.066;5.358;2023-03-23T17:08:09;12.25;;;2.20;;
44446;SDS011;30152;52.066;5.358;2023-03-23T17:10:36;9.60;;;2.50;;
44446;SDS011;30152;52.066;5.358;2023-03-23T17:13:03;14.13;;;2.42;;
44446;SDS011;30152;52.066;5.358;2023-03-23T17:15:28;12.75;;;2.45;;
44446;SDS011;30152;52.066;5.358;2023-03-23T17:17:54;9.13;;;1.88;;
44446;SDS011;30152;52.066;5.358;2023-03-23T17:20:20;13.88;;;2.35;;
44446;SDS011;30152;52.066;5.358;2023-03-23T17:22:46;11.48;;;2.40;;
44446;SDS011;30152;52.066;5.358;2023-03-23T17:25:12;9.07;;;2.13;;
44446;SDS011;30152;52.066;5.358;2023-03-23T17:27:38;7.45;;;2.05;;
44446;SDS011;30152;52.066;5.358;2023-03-23T17:30:05;11.02;;;2.70;;
44446;SDS011;30152;52.066;5.358;2023-03-23T17:32:32;12.38;;;2.45;;
44446;SDS011;30152;52.066;5.358;2023-03-23T17:34:58;11.70;;;2.63;;
44446;SDS011;30152;52.066;5.358;2023-03-23T17:37:24;11.20;;;2.10;;
44446;SDS011;30152;52.066;5.358;2023-03-23T17:39:49;12.60;;;2.35;;
44446;SDS011;30152;52.066;5.358;2023-03-23T17:42:15;15.48;;;2.47;;
44446;SDS011;30152;52.066;5.358;2023-03-23T17:44:42;9.77;;;1.92;;
44446;SDS011;30152;52.066;5.358;2023-03-23T17:47:08;13.38;;;1.70;;
44446;SDS011;30152;52.066;5.358;2023-03-23T17:49:33;7.00;;;1.60;;
44446;SDS011;30152;52.066;5.358;2023-03-23T17:52:00;9.02;;;1.80;;
44446;SDS011;30152;52.066;5.358;2023-03-23T17:54:25;13.10;;;2.08;;
44446;SDS011;30152;52.066;5.358;2023-03-23T17:56:53;6.63;;;1.95;;
44446;SDS011;30152;52.066;5.358;2023-03-23T17:59:21;16.08;;;2.42;;
44446;SDS011;30152;52.066;5.358;2023-03-23T18:01:47;14.45;;;2.25;;
44446;SDS011;30152;52.066;5.358;2023-03-23T18:04:13;12.77;;;2.08;;
44446;SDS011;30152;52.066;5.358;2023-03-23T18:06:39;10.30;;;2.03;;
44446;SDS011;30152;52.066;5.358;2023-03-23T18:09:05;14.95;;;2.47;;
44446;SDS011;30152;52.066;5.358;2023-03-23T18:11:30;11.13;;;2.13;;
44446;SDS011;30152;52.066;5.358;2023-03-23T18:13:56;10.13;;;2.22;;
44446;SDS011;30152;52.066;5.358;2023-03-23T18:16:22;10.43;;;2.67;;
44446;SDS011;30152;52.066;5.358;2023-03-23T18:18:48;9.18;;;2.13;;
44446;SDS011;30152;52.066;5.358;2023-03-23T18:21:14;13.85;;;2.25;;
44446;SDS011;30152;52.066;5.358;2023-03-23T18:23:40;12.40;;;1.83;;
44446;SDS011;30152;52.066;5.358;2023-03-23T18:26:08;15.18;;;2.28;;
44446;SDS011;30152;52.066;5.358;2023-03-23T18:28:36;8.57;;;2.00;;
44446;SDS011;30152;52.066;5.358;2023-03-23T18:31:03;12.27;;;2.13;;
44446;SDS011;30152;52.066;5.358;2023-03-23T18:33:30;8.75;;;2.33;;
44446;SDS011;30152;52.066;5.358;2023-03-23T18:35:57;12.30;;;2.30;;
44446;SDS011;30152;52.066;5.358;2023-03-23T18:38:24;13.27;;;2.83;;
44446;SDS011;30152;52.066;5.358;2023-03-23T18:40:50;13.30;;;2.78;;
44446;SDS011;30152;52.066;5.358;2023-03-23T18:43:16;13.18;;;2.78;;
44446;SDS011;30152;52.066;5.358;2023-03-23T18:45:47;15.68;;;2.97;;
44446;SDS011;30152;52.066;5.358;2023-03-23T18:48:16;9.00;;;2.40;;
44446;SDS011;30152;52.066;5.358;2023-03-23T18:50:46;13.43;;;2.70;;
44446;SDS011;30152;52.066;5.358;2023-03-23T18:53:12;13.95;;;3.55;;
44446;SDS011;30152;52.066;5.358;2023-03-23T18:55:38;12.93;;;2.60;;
44446;SDS011;30152;52.066;5.358;2023-03-23T18:58:04;8.82;;;2.42;;
44446;SDS011;30152;52.066;5.358;2023-03-23T19:00:30;16.13;;;3.35;;
44446;SDS011;30152;52.066;5.358;2023-03-23T19:02:57;13.73;;;2.95;;
44446;SDS011;30152;52.066;5.358;2023-03-23T19:05:24;15.30;;;3.75;;
44446;SDS011;30152;52.066;5.358;2023-03-23T19:07:50;12.98;;;2.92;;
44446;SDS011;30152;52.066;5.358;2023-03-23T19:10:18;13.00;;;2.75;;
44446;SDS011;30152;52.066;5.358;2023-03-23T19:12:45;17.40;;;3.30;;
44446;SDS011;30152;52.066;5.358;2023-03-23T19:15:11;11.50;;;3.17;;
44446;SDS011;30152;52.066;5.358;2023-03-23T19:17:37;14.77;;;3.58;;
44446;SDS011;30152;52.066;5.358;2023-03-23T19:20:04;12.55;;;3.45;;
44446;SDS011;30152;52.066;5.358;2023-03-23T19:22:30;17.35;;;4.25;;
44446;SDS011;30152;52.066;5.358;2023-03-23T19:24:56;12.32;;;3.20;;
44446;SDS011;30152;52.066;5.358;2023-03-23T19:27:22;14.52;;;3.60;;
44446;SDS011;30152;52.066;5.358;2023-03-23T19:29:48;14.73;;;3.55;;
44446;SDS011;30152;52.066;5.358;2023-03-23T19:32:14;16.25;;;3.65;;
44446;SDS011;30152;52.066;5.358;2023-03-23T19:34:40;23.08;;;7.35;;
44446;SDS011;30152;52.066;5.358;2023-03-23T19:37:06;21.73;;;5.05;;
44446;SDS011;30152;52.066;5.358;2023-03-23T19:39:33;16.92;;;3.53;;
44446;SDS011;30152;52.066;5.358;2023-03-23T19:42:00;14.25;;;4.00;;
44446;SDS011;30152;52.066;5.358;2023-03-23T19:44:26;20.13;;;4.93;;
44446;SDS011;30152;52.066;5.358;2023-03-23T19:46:52;12.40;;;3.58;;
44446;SDS011;30152;52.066;5.358;2023-03-23T19:49:18;12.43;;;4.00;;
44446;SDS011;30152;52.066;5.358;2023-03-23T19:51:44;13.63;;;3.83;;
44446;SDS011;30152;52.066;5.358;2023-03-23T19:54:10;15.43;;;3.88;;
44446;SDS011;30152;52.066;5.358;2023-03-23T19:56:37;18.70;;;5.20;;
44446;SDS011;30152;52.066;5.358;2023-03-23T19:59:03;15.82;;;3.95;;
44446;SDS011;30152;52.066;5.358;2023-03-23T20:01:31;15.73;;;5.43;;
44446;SDS011;30152;52.066;5.358;2023-03-23T20:03:57;13.82;;;4.88;;
44446;SDS011;30152;52.066;5.358;2023-03-23T20:06:24;14.40;;;4.53;;
44446;SDS011;30152;52.066;5.358;2023-03-23T20:08:50;14.30;;;4.55;;
44446;SDS011;30152;52.066;5.358;2023-03-23T20:11:17;12.43;;;3.88;;
44446;SDS011;30152;52.066;5.358;2023-03-23T20:13:43;16.05;;;4.28;;
44446;SDS011;30152;52.066;5.358;2023-03-23T20:16:09;16.17;;;4.45;;
44446;SDS011;30152;52.066;5.358;2023-03-23T20:18:35;16.30;;;4.30;;
44446;SDS011;30152;52.066;5.358;2023-03-23T20:21:02;19.83;;;4.50;;
44446;SDS011;30152;52.066;5.358;2023-03-23T20:23:31;12.88;;;4.05;;
44446;SDS011;30152;52.066;5.358;2023-03-23T20:26:00;16.77;;;4.10;;
44446;SDS011;30152;52.066;5.358;2023-03-23T20:28:28;12.77;;;4.03;;
44446;SDS011;30152;52.066;5.358;2023-03-23T20:31:08;17.35;;;5.10;;
44446;SDS011;30152;52.066;5.358;2023-03-23T20:33:36;18.10;;;4.13;;
44446;SDS011;30152;52.066;5.358;2023-03-23T20:36:02;13.23;;;3.90;;
44446;SDS011;30152;52.066;5.358;2023-03-23T20:38:29;17.55;;;3.45;;
44446;SDS011;30152;52.066;5.358;2023-03-23T20:40:59;14.80;;;3.85;;
44446;SDS011;30152;52.066;5.358;2023-03-23T20:43:26;14.57;;;4.07;;
44446;SDS011;30152;52.066;5.358;2023-03-23T20:45:57;17.67;;;4.07;;
44446;SDS011;30152;52.066;5.358;2023-03-23T20:48:24;15.95;;;4.30;;
44446;SDS011;30152;52.066;5.358;2023-03-23T20:50:52;13.23;;;3.88;;
44446;SDS011;30152;52.066;5.358;2023-03-23T20:53:21;17.08;;;4.00;;
44446;SDS011;30152;52.066;5.358;2023-03-23T20:55:48;14.05;;;4.38;;
44446;SDS011;30152;52.066;5.358;2023-03-23T20:58:15;12.02;;;3.92;;
44446;SDS011;30152;52.066;5.358;2023-03-23T21:00:41;22.92;;;5.60;;
44446;SDS011;30152;52.066;5.358;2023-03-23T21:03:08;12.75;;;3.83;;
44446;SDS011;30152;52.066;5.358;2023-03-23T21:05:39;13.82;;;3.88;;
44446;SDS011;30152;52.066;5.358;2023-03-23T21:08:06;18.75;;;4.35;;
44446;SDS011;30152;52.066;5.358;2023-03-23T21:10:32;13.88;;;3.55;;
44446;SDS011;30152;52.066;5.358;2023-03-23T21:12:58;12.60;;;3.30;;
44446;SDS011;30152;52.066;5.358;2023-03-23T21:15:24;15.25;;;3.60;;
44446;SDS011;30152;52.066;5.358;2023-03-23T21:17:51;12.98;;;4.20;;
44446;SDS011;30152;52.066;5.358;2023-03-23T21:20:16;14.23;;;4.00;;
44446;SDS011;30152;52.066;5.358;2023-03-23T21:22:42;13.80;;;3.95;;
44446;SDS011;30152;52.066;5.358;2023-03-23T21:25:07;12.98;;;3.90;;
44446;SDS011;30152;52.066;5.358;2023-03-23T21:27:34;14.32;;;4.50;;
44446;SDS011;30152;52.066;5.358;2023-03-23T21:30:01;16.60;;;4.07;;
44446;SDS011;30152;52.066;5.358;2023-03-23T21:32:28;18.35;;;4.45;;
44446;SDS011;30152;52.066;5.358;2023-03-23T21:34:53;20.52;;;5.20;;
44446;SDS011;30152;52.066;5.358;2023-03-23T21:37:22;16.17;;;5.05;;
44446;SDS011;30152;52.066;5.358;2023-03-23T21:39:48;12.45;;;4.20;;
44446;SDS011;30152;52.066;5.358;2023-03-23T21:42:14;15.27;;;3.92;;
44446;SDS011;30152;52.066;5.358;2023-03-23T21:44:39;13.23;;;3.80;;
44446;SDS011;30152;52.066;5.358;2023-03-23T21:47:07;13.02;;;4.28;;
44446;SDS011;30152;52.066;5.358;2023-03-23T21:49:33;15.55;;;4.63;;
44446;SDS011;30152;52.066;5.358;2023-03-23T21:51:59;15.90;;;3.83;;
44446;SDS011;30152;52.066;5.358;2023-03-23T21:54:26;11.95;;;4.75;;
44446;SDS011;30152;52.066;5.358;2023-03-23T21:56:54;12.43;;;3.95;;
44446;SDS011;30152;52.066;5.358;2023-03-23T21:59:21;15.10;;;4.20;;
44446;SDS011;30152;52.066;5.358;2023-03-23T22:01:47;12.13;;;4.55;;
44446;SDS011;30152;52.066;5.358;2023-03-23T22:04:13;13.73;;;4.78;;
44446;SDS011;30152;52.066;5.358;2023-03-23T22:06:40;13.30;;;4.10;;
44446;SDS011;30152;52.066;5.358;2023-03-23T22:09:07;15.05;;;3.88;;
44446;SDS011;30152;52.066;5.358;2023-03-23T22:11:34;15.60;;;3.92;;
44446;SDS011;30152;52.066;5.358;2023-03-23T22:14:01;13.07;;;3.53;;
44446;SDS011;30152;52.066;5.358;2023-03-23T22:16:27;16.42;;;3.85;;
44446;SDS011;30152;52.066;5.358;2023-03-23T22:18:54;10.85;;;4.28;;
44446;SDS011;30152;52.066;5.358;2023-03-23T22:21:20;12.85;;;3.65;;
44446;SDS011;30152;52.066;5.358;2023-03-23T22:23:49;10.50;;;3.63;;
44446;SDS011;30152;52.066;5.358;2023-03-23T22:26:15;14.82;;;3.72;;
44446;SDS011;30152;52.066;5.358;2023-03-23T22:28:41;11.52;;;3.55;;
44446;SDS011;30152;52.066;5.358;2023-03-23T22:31:10;19.42;;;4.10;;
44446;SDS011;30152;52.066;5.358;2023-03-23T22:33:37;11.00;;;3.38;;
44446;SDS011;30152;52.066;5.358;2023-03-23T22:36:04;13.10;;;3.50;;
44446;SDS011;30152;52.066;5.358;2023-03-23T22:38:37;14.68;;;3.55;;
44446;SDS011;30152;52.066;5.358;2023-03-23T22:41:05;10.50;;;3.92;;
44446;SDS011;30152;52.066;5.358;2023-03-23T22:43:35;10.45;;;3.30;;
44446;SDS011;30152;52.066;5.358;2023-03-23T22:46:01;17.35;;;3.78;;
44446;SDS011;30152;52.066;5.358;2023-03-23T22:48:28;11.45;;;3.83;;
44446;SDS011;30152;52.066;5.358;2023-03-23T22:50:53;11.30;;;3.55;;
44446;SDS011;30152;52.066;5.358;2023-03-23T22:53:19;11.18;;;3.85;;
44446;SDS011;30152;52.066;5.358;2023-03-23T22:55:46;16.45;;;4.05;;
44446;SDS011;30152;52.066;5.358;2023-03-23T22:58:14;11.48;;;3.42;;
44446;SDS011;30152;52.066;5.358;2023-03-23T23:00:42;10.63;;;4.00;;
44446;SDS011;30152;52.066;5.358;2023-03-23T23:03:09;9.20;;;3.10;;
44446;SDS011;30152;52.066;5.358;2023-03-23T23:05:39;14.15;;;3.53;;
44446;SDS011;30152;52.066;5.358;2023-03-23T23:08:05;10.85;;;3.13;;
44446;SDS011;30152;52.066;5.358;2023-03-23T23:10:36;11.15;;;3.50;;
44446;SDS011;30152;52.066;5.358;2023-03-23T23:13:02;10.10;;;3.28;;
44446;SDS011;30152;52.066;5.358;2023-03-23T23:15:27;11.15;;;3.47;;
44446;SDS011;30152;52.066;5.358;2023-03-23T23:17:53;10.18;;;3.35;;
44446;SDS011;30152;52.066;5.358;2023-03-23T23:20:19;15.07;;;3.05;;
44446;SDS011;30152;52.066;5.358;2023-03-23T23:22:44;9.35;;;3.15;;
44446;SDS011;30152;52.066;5.358;2023-03-23T23:25:10;11.73;;;3.70;;
44446;SDS011;30152;52.066;5.358;2023-03-23T23:27:36;15.35;;;3.30;;
44446;SDS011;30152;52.066;5.358;2023-03-23T23:30:02;9.18;;;3.22;;
44446;SDS011;30152;52.066;5.358;2023-03-23T23:32:30;9.73;;;3.05;;